Time;durP1;ratioP1;P1;durP2;ratioP2;P2;SDS_P1;SDS_P2;PMS_P1;PMS_P2;Temp;Humidity;BMP_temperature;BMP_pressure;BME280_temperature;BME280_humidity;BME280_pressure;Samples;Min_cycle;Max_cycle;Signal;HPM_P1;HPM_P2
2022/10/13 00:00:44;;;;;;;12.33;6.72;;;;;;;8.67;73.06;100702.30;1703913;82;21093;-75
2022/10/13 00:03:11;;;;;;;14.00;6.45;;;;;;;8.77;72.96;100701.87;1705745;84;21082;-76
2022/10/13 00:05:42;;;;;;;14.35;7.60;;;;;;;8.92;72.53;100693.55;1705680;82;21026;-76
2022/10/13 00:08:09;;;;;;;15.08;7.60;;;;;;;8.90;72.35;100698.14;1705505;84;21132;-76
2022/10/13 00:10:39;;;;;;;13.13;7.22;;;;;;;8.81;72.43;100707.26;1710710;83;21046;-78
2022/10/13 00:13:06;;;;;;;15.30;8.38;;;;;;;8.76;72.82;100705.97;1713618;83;21541;-79
2022/10/13 00:15:39;;;;;;;14.47;8.38;;;;;;;8.73;72.72;100696.95;1731495;82;20991;-75
2022/10/13 00:18:05;;;;;;;13.80;7.62;;;;;;;8.70;72.69;100695.42;1743359;82;22035;-79
2022/10/13 00:20:32;;;;;;;17.35;8.28;;;;;;;8.67;72.64;100691.70;1743195;82;21590;-76
2022/10/13 00:23:00;;;;;;;12.43;7.05;;;;;;;8.61;72.66;100693.06;1743287;82;21129;-76
2022/10/13 00:25:26;;;;;;;14.13;7.50;;;;;;;8.54;72.81;100703.02;1735900;82;21046;-77
2022/10/13 00:27:53;;;;;;;14.78;7.70;;;;;;;8.52;73.32;100704.47;1714449;82;21455;-77
2022/10/13 00:30:20;;;;;;;14.83;6.85;;;;;;;8.61;73.19;100706.80;1713525;83;21053;-77
2022/10/13 00:32:47;;;;;;;15.10;7.80;;;;;;;8.76;73.15;100700.18;1713542;83;21077;-78
2022/10/13 00:35:13;;;;;;;14.18;7.75;;;;;;;8.78;72.91;100695.59;1716198;83;21074;-77
2022/10/13 00:37:40;;;;;;;10.50;6.65;;;;;;;8.82;73.01;100700.97;1717360;82;20974;-76
2022/10/13 00:40:07;;;;;;;16.52;7.70;;;;;;;8.89;72.82;100697.31;1714704;83;21115;-77
2022/10/13 00:42:34;;;;;;;13.00;7.67;;;;;;;8.94;72.35;100698.23;1713763;83;21004;-77
2022/10/13 00:45:23;;;;;;;18.40;8.08;;;;;;;8.95;72.30;100701.25;1713515;83;21628;-77
2022/10/13 00:47:55;;;;;;;17.57;7.90;;;;;;;8.89;72.00;100697.81;1723929;82;21097;-78
2022/10/13 00:50:29;;;;;;;25.17;8.33;;;;;;;8.77;72.10;100695.25;1742080;82;21050;-78
2022/10/13 00:52:56;;;;;;;14.90;6.75;;;;;;;8.70;72.30;100698.07;1714174;82;21105;-77
2022/10/13 00:55:26;;;;;;;16.32;7.83;;;;;;;8.63;72.42;100692.94;1714069;82;21542;-77
2022/10/13 00:57:54;;;;;;;15.63;6.95;;;;;;;8.65;72.49;100694.97;1713844;83;21062;-75
2022/10/13 01:00:23;;;;;;;17.77;7.03;;;;;;;8.75;72.45;100698.52;1713309;83;21138;-77
2022/10/13 01:02:49;;;;;;;15.32;7.87;;;;;;;8.77;72.56;100695.72;1713521;83;21022;-77
2022/10/13 01:05:16;;;;;;;14.73;7.10;;;;;;;8.78;72.83;100690.29;1740409;82;21545;-77
2022/10/13 01:07:47;;;;;;;13.83;7.33;;;;;;;8.80;72.83;100690.99;1713039;82;21027;-76
2022/10/13 01:11:13;;;;;;;12.70;6.90;;;;;;;8.81;72.71;100690.03;1740540;82;21498;-78
2022/10/13 01:13:50;;;;;;;13.15;7.17;;;;;;;8.85;72.70;100694.59;1721071;82;21227;-77
2022/10/13 01:16:56;;;;;;;12.63;6.92;;;;;;;8.86;72.51;100685.65;1700750;84;21545;-77
2022/10/13 01:19:34;;;;;;;12.93;6.62;;;;;;;8.80;72.51;100693.64;1705790;84;21035;-77
2022/10/13 01:22:30;;;;;;;13.53;7.05;;;;;;;8.78;72.96;100688.13;1706269;82;21045;-77
2022/10/13 01:25:34;;;;;;;10.80;6.33;;;;;;;8.89;72.79;100690.69;1706059;84;21061;-78
2022/10/13 01:28:21;;;;;;;10.88;6.87;;;;;;;9.09;72.29;100684.95;1721611;82;21482;-76
2022/10/13 01:30:57;;;;;;;13.40;7.53;;;;;;;9.08;72.21;100686.41;1736037;82;21043;-77
2022/10/13 01:33:42;;;;;;;13.75;7.20;;;;;;;9.05;72.16;100687.03;1735431;82;21007;-75
2022/10/13 01:36:24;;;;;;;11.97;7.87;;;;;;;9.07;72.24;100682.93;1735262;82;21007;-78
2022/10/13 01:39:16;;;;;;;12.82;7.00;;;;;;;9.02;72.07;100677.19;1734173;82;21003;-77
2022/10/13 01:41:46;;;;;;;10.98;7.05;;;;;;;8.89;71.97;100681.42;1735110;82;21039;-77
2022/10/13 01:44:22;;;;;;;17.45;7.62;;;;;;;8.77;72.23;100675.38;1734998;82;21026;-76
2022/10/13 01:46:55;;;;;;;12.68;6.90;;;;;;;8.73;72.43;100677.95;1735052;82;21015;-76
2022/10/13 01:49:26;;;;;;;11.18;6.97;;;;;;;8.69;72.58;100679.16;1735263;82;20999;-76
2022/10/13 01:51:58;;;;;;;13.20;7.37;;;;;;;8.72;72.66;100678.91;1720544;82;21578;-77
2022/10/13 01:54:24;;;;;;;13.88;7.90;;;;;;;8.76;72.63;100680.80;1706036;84;21181;-77
2022/10/13 01:56:54;;;;;;;15.60;7.80;;;;;;;8.67;72.87;100681.11;1705696;82;21031;-77
2022/10/13 01:59:21;;;;;;;12.73;7.53;;;;;;;8.56;73.08;100679.89;1705740;83;20995;-77
2022/10/13 02:02:20;;;;;;;13.15;7.90;;;;;;;8.48;73.34;100683.66;1705742;83;21066;-77
2022/10/13 02:05:12;;;;;;;11.28;6.37;;;;;;;8.39;73.57;100679.98;1706025;83;21027;-78
2022/10/13 02:07:47;;;;;;;13.00;6.45;;;;;;;8.34;73.82;100678.19;1705985;84;21283;-77
2022/10/13 02:10:24;;;;;;;14.50;7.35;;;;;;;8.33;73.95;100680.02;1655162;85;21539;-76
2022/10/13 02:13:02;;;;;;;14.23;7.42;;;;;;;8.46;73.86;100680.67;1680108;85;21557;-76
2022/10/13 02:15:41;;;;;;;11.03;6.58;;;;;;;8.45;73.92;100676.34;1681637;85;21019;-76
2022/10/13 02:18:11;;;;;;;15.85;7.17;;;;;;;8.44;74.07;100685.27;1680411;85;21506;-76
2022/10/13 02:20:40;;;;;;;14.00;8.35;;;;;;;8.41;74.12;100680.22;1676555;85;21131;-76
2022/10/13 02:23:13;;;;;;;14.73;7.10;;;;;;;8.38;74.20;100680.93;1656086;86;21079;-76
2022/10/13 02:25:40;;;;;;;13.72;7.53;;;;;;;8.31;74.29;100683.28;1653008;86;21579;-77
2022/10/13 02:28:08;;;;;;;13.43;7.85;;;;;;;8.28;74.32;100689.65;1652834;86;21133;-78
2022/10/13 02:30:38;;;;;;;12.50;7.78;;;;;;;8.25;74.39;100685.95;1651965;86;21062;-78
2022/10/13 02:33:04;;;;;;;15.43;7.78;;;;;;;8.30;74.39;100688.20;1656124;85;21251;-76
2022/10/13 02:35:32;;;;;;;12.60;8.03;;;;;;;8.43;74.19;100690.20;1653756;86;21570;-76
2022/10/13 02:38:00;;;;;;;14.05;9.28;;;;;;;8.44;74.16;100686.59;1652945;86;21083;-77
2022/10/13 02:40:26;;;;;;;13.22;8.75;;;;;;;8.38;74.25;100688.88;1652751;86;21086;-76
2022/10/13 02:42:54;;;;;;;16.73;8.73;;;;;;;8.33;74.36;100687.13;1652535;86;21046;-78
2022/10/13 02:45:21;;;;;;;17.40;9.03;;;;;;;8.27;74.54;100685.34;1652723;86;21504;-78
2022/10/13 02:47:48;;;;;;;14.38;9.33;;;;;;;8.22;74.69;100684.05;1671371;85;21078;-78
2022/10/13 02:50:15;;;;;;;14.80;7.33;;;;;;;8.16;74.87;100684.08;1674886;85;21590;-78
2022/10/13 02:52:43;;;;;;;14.55;8.93;;;;;;;8.21;74.89;100687.68;1652568;86;21050;-76
2022/10/13 02:55:09;;;;;;;14.55;8.68;;;;;;;8.26;74.84;100686.79;1652907;85;21094;-77
2022/10/13 02:57:39;;;;;;;16.75;9.35;;;;;;;8.23;74.98;100676.48;1652606;86;21088;-78
2022/10/13 03:00:06;;;;;;;14.28;9.33;;;;;;;8.17;75.08;100682.27;1652740;86;21173;-77
2022/10/13 03:02:34;;;;;;;11.68;8.43;;;;;;;8.13;75.25;100676.88;1658382;85;21074;-76
2022/10/13 03:05:02;;;;;;;18.92;8.28;;;;;;;8.11;75.34;100680.14;1680163;85;21539;-77
2022/10/13 03:07:29;;;;;;;16.48;8.75;;;;;;;8.09;75.43;100684.23;1660898;85;21043;-76
2022/10/13 03:09:57;;;;;;;18.37;9.08;;;;;;;8.15;75.39;100685.06;1667900;85;21114;-77
2022/10/13 03:12:24;;;;;;;15.13;7.78;;;;;;;8.32;75.13;100681.45;1675252;85;21073;-78
2022/10/13 03:14:50;;;;;;;18.85;9.28;;;;;;;8.37;75.05;100677.95;1676171;85;21026;-78
2022/10/13 03:17:17;;;;;;;15.68;8.98;;;;;;;8.32;75.00;100673.52;1673205;84;21096;-78
2022/10/13 03:19:43;;;;;;;15.05;9.05;;;;;;;8.28;75.06;100672.94;1692152;84;21053;-78
2022/10/13 03:22:14;;;;;;;14.07;8.93;;;;;;;8.24;75.18;100676.81;1712009;83;21287;-78
2022/10/13 03:24:41;;;;;;;11.95;7.83;;;;;;;8.18;75.32;100673.37;1691806;84;21100;-78
2022/10/13 03:27:07;;;;;;;20.50;8.25;;;;;;;8.14;75.46;100669.31;1692083;84;21559;-77
2022/10/13 03:29:34;;;;;;;13.72;8.53;;;;;;;8.22;75.38;100672.97;1691893;84;21096;-77
2022/10/13 03:32:00;;;;;;;10.53;7.75;;;;;;;8.32;75.20;100675.67;1694759;83;21044;-78
2022/10/13 03:34:29;;;;;;;18.60;10.00;;;;;;;8.27;75.29;100680.05;1720222;83;21025;-78
2022/10/13 03:36:56;;;;;;;18.98;8.65;;;;;;;8.23;75.35;100681.77;1720614;83;21068;-78
2022/10/13 03:39:24;;;;;;;17.67;9.20;;;;;;;8.21;75.37;100681.06;1697054;83;21037;-76
2022/10/13 03:41:50;;;;;;;18.30;8.63;;;;;;;8.19;75.46;100683.83;1664582;85;21104;-76
2022/10/13 03:44:16;;;;;;;12.95;7.37;;;;;;;8.19;75.46;100680.33;1663133;86;21392;-76
2022/10/13 03:46:44;;;;;;;16.85;8.95;;;;;;;8.24;75.63;100676.81;1692998;83;21888;-74
2022/10/13 03:49:11;;;;;;;11.43;6.35;;;;;;;8.40;75.51;100685.15;1720681;83;21005;-78
2022/10/13 03:51:39;;;;;;;14.90;7.87;;;;;;;8.63;75.17;100681.02;1695125;83;21584;-77
2022/10/13 03:54:05;;;;;;;14.60;6.92;;;;;;;8.71;74.81;100679.89;1664087;86;21115;-77
2022/10/13 03:56:32;;;;;;;13.70;7.40;;;;;;;8.73;74.63;100687.22;1662513;86;21057;-78
2022/10/13 03:59:00;;;;;;;11.95;7.42;;;;;;;8.79;74.38;100689.33;1691739;84;21072;-76
2022/10/13 04:01:28;;;;;;;11.83;7.40;;;;;;;8.84;73.99;100684.95;1664097;84;21056;-78
2022/10/13 04:03:55;;;;;;;15.10;7.53;;;;;;;8.79;73.70;100691.98;1666808;84;21049;-78
2022/10/13 04:06:23;;;;;;;15.35;8.90;;;;;;;8.69;73.70;100689.75;1667688;86;21009;-76
2022/10/13 04:08:51;;;;;;;14.07;7.10;;;;;;;8.58;73.86;100689.38;1665298;84;21037;-78
2022/10/13 04:11:19;;;;;;;14.85;7.85;;;;;;;8.63;73.91;100693.80;1663943;85;21033;-76
2022/10/13 04:13:47;;;;;;;15.13;7.42;;;;;;;8.64;73.96;100694.14;1662276;86;21104;-77
2022/10/13 04:16:23;;;;;;;16.27;8.05;;;;;;;8.63;74.23;100692.48;1692354;84;21056;-77
2022/10/13 04:18:56;;;;;;;17.25;8.90;;;;;;;8.66;74.06;100689.55;1662421;86;21048;-79
2022/10/13 04:21:24;;;;;;;26.62;19.73;;;;;;;8.64;73.92;100695.46;1692080;84;21072;-78
2022/10/13 04:23:53;;;;;;;35.23;27.82;;;;;;;8.56;74.02;100692.64;1662683;86;22221;-77
2022/10/13 04:26:21;;;;;;;39.42;30.77;;;;;;;8.49;74.17;100691.97;1689084;83;21040;-77
2022/10/13 04:28:49;;;;;;;16.65;12.88;;;;;;;8.39;74.47;100690.08;1692175;84;21062;-78
2022/10/13 04:31:15;;;;;;;17.65;11.03;;;;;;;8.43;74.46;100685.39;1674247;85;21549;-77
2022/10/13 04:33:44;;;;;;;16.77;10.60;;;;;;;8.52;74.26;100687.72;1699964;84;21106;-76
2022/10/13 04:36:12;;;;;;;16.15;10.80;;;;;;;8.45;74.36;100685.60;1720727;83;21293;-77
2022/10/13 04:38:40;;;;;;;14.58;10.23;;;;;;;8.42;74.44;100691.18;1691809;84;21038;-78
2022/10/13 04:41:07;;;;;;;19.35;11.75;;;;;;;8.40;74.51;100694.87;1692078;84;21115;-76
2022/10/13 04:43:34;;;;;;;18.98;12.28;;;;;;;8.34;74.64;100692.75;1720739;83;21048;-77
2022/10/13 04:46:07;;;;;;;14.47;8.80;;;;;;;8.31;74.86;100692.55;1690475;84;21069;-74
2022/10/13 04:48:33;;;;;;;15.63;8.58;;;;;;;8.29;74.96;100695.81;1721668;83;21154;-78
2022/10/13 04:51:06;;;;;;;14.28;8.40;;;;;;;8.37;74.82;100693.34;1721320;83;21118;-75
2022/10/13 04:53:33;;;;;;;15.32;8.48;;;;;;;8.44;74.71;100700.30;1702697;84;21143;-76
2022/10/13 04:56:01;;;;;;;15.88;8.63;;;;;;;8.41;74.78;100701.41;1722627;83;21073;-79
2022/10/13 04:58:28;;;;;;;20.80;9.25;;;;;;;8.40;74.89;100710.30;1725058;83;21027;-77
2022/10/13 05:00:56;;;;;;;13.45;9.53;;;;;;;8.42;75.11;100708.39;1677785;84;21118;-79
2022/10/13 05:03:23;;;;;;;15.90;9.60;;;;;;;8.46;75.15;100710.30;1674596;85;21050;-77
2022/10/13 05:05:51;;;;;;;14.40;9.25;;;;;;;8.51;75.32;100716.02;1674255;85;21090;-78
2022/10/13 05:08:18;;;;;;;15.50;8.30;;;;;;;8.54;75.25;100716.27;1705939;83;21070;-78
2022/10/13 05:11:01;;;;;;;15.72;8.55;;;;;;;8.65;74.95;100715.70;1690353;84;21570;-76
2022/10/13 05:13:29;;;;;;;13.32;8.10;;;;;;;8.82;74.71;100716.87;1741735;82;21055;-78
2022/10/13 05:15:58;;;;;;;17.25;9.53;;;;;;;8.89;74.36;100715.04;1741533;82;21505;-78
2022/10/13 05:18:25;;;;;;;15.55;8.00;;;;;;;8.89;74.17;100713.22;1678203;85;21079;-78
2022/10/13 05:20:52;;;;;;;15.68;8.63;;;;;;;8.92;74.03;100720.05;1678249;85;21554;-76
2022/10/13 05:23:19;;;;;;;14.38;8.75;;;;;;;8.87;73.70;100716.98;1679978;85;21029;-76
2022/10/13 05:25:47;;;;;;;15.25;7.97;;;;;;;8.77;73.64;100712.47;1743141;82;21023;-77
2022/10/13 05:28:14;;;;;;;15.32;8.68;;;;;;;8.72;73.76;100716.48;1743239;82;21095;-75
2022/10/13 05:30:42;;;;;;;14.93;8.48;;;;;;;8.64;73.97;100721.13;1743360;82;21564;-76
2022/10/13 05:33:09;;;;;;;18.87;8.18;;;;;;;8.65;74.12;100722.31;1742123;82;20995;-77
2022/10/13 05:35:36;;;;;;;23.30;9.33;;;;;;;8.70;74.14;100720.59;1743176;82;21026;-78
2022/10/13 05:38:03;;;;;;;19.42;9.20;;;;;;;8.70;74.31;100723.73;1743284;82;21503;-78
2022/10/13 05:40:29;;;;;;;19.35;8.80;;;;;;;8.71;74.32;100730.23;1743521;82;21007;-77
2022/10/13 05:42:57;;;;;;;15.23;8.85;;;;;;;8.71;74.25;100730.23;1742865;82;21077;-78
2022/10/13 05:45:25;;;;;;;16.23;8.73;;;;;;;8.70;74.32;100730.35;1741090;82;21090;-79
2022/10/13 05:47:51;;;;;;;15.40;8.70;;;;;;;8.69;74.21;100733.47;1686285;83;21043;-77
2022/10/13 05:50:18;;;;;;;12.10;7.40;;;;;;;8.66;74.23;100729.77;1716218;83;21394;-78
2022/10/13 05:52:44;;;;;;;17.65;8.15;;;;;;;8.70;74.24;100732.52;1714268;82;21026;-78
2022/10/13 05:55:12;;;;;;;19.07;8.55;;;;;;;8.75;74.18;100740.05;1714504;83;21058;-77
2022/10/13 05:57:41;;;;;;;15.25;9.03;;;;;;;8.71;74.30;100730.69;1713662;82;21521;-79
2022/10/13 06:00:11;;;;;;;14.80;9.83;;;;;;;8.73;74.31;100728.28;1713592;83;21537;-83
2022/10/13 06:03:13;;;;;;;13.40;9.05;;;;;;;8.76;74.25;100739.92;1706083;82;21112;-75
2022/10/13 06:05:44;;;;;;;13.78;8.10;;;;;;;8.80;74.13;100733.88;1713530;83;21018;-76
2022/10/13 06:08:10;;;;;;;11.35;8.58;;;;;;;8.84;74.23;100737.45;1713804;83;21062;-76
2022/10/13 06:10:38;;;;;;;13.68;7.72;;;;;;;8.85;74.07;100735.16;1713509;82;21030;-76
2022/10/13 06:13:05;;;;;;;13.20;8.93;;;;;;;8.95;74.04;100732.55;1718830;82;21077;-76
2022/10/13 06:15:33;;;;;;;15.20;9.10;;;;;;;9.07;73.84;100732.46;1714297;82;21471;-76
2022/10/13 06:18:09;;;;;;;16.70;9.50;;;;;;;9.08;73.90;100734.12;1724917;82;21034;-75
2022/10/13 06:20:36;;;;;;;15.93;9.10;;;;;;;9.10;73.83;100740.12;1707087;82;21085;-75
2022/10/13 06:23:04;;;;;;;18.17;9.88;;;;;;;9.12;73.78;100743.02;1710219;82;21067;-75
2022/10/13 06:25:32;;;;;;;19.55;10.60;;;;;;;9.14;73.80;100739.74;1705755;84;21569;-76
2022/10/13 06:28:00;;;;;;;16.57;9.05;;;;;;;9.20;73.93;100743.67;1705831;84;21694;-76
2022/10/13 06:30:27;;;;;;;18.05;10.88;;;;;;;9.29;73.79;100743.34;1705607;84;21063;-76
2022/10/13 06:32:54;;;;;;;14.07;8.20;;;;;;;9.40;73.76;100745.87;1718245;82;21050;-76
2022/10/13 06:35:22;;;;;;;15.88;8.93;;;;;;;9.60;73.45;100744.09;1733397;82;21039;-75
2022/10/13 06:37:49;;;;;;;14.75;9.10;;;;;;;9.86;72.73;100745.75;1735199;82;21003;-74
2022/10/13 06:40:17;;;;;;;15.10;8.35;;;;;;;9.98;72.25;100745.95;1735770;82;21837;-76
2022/10/13 06:42:49;;;;;;;13.25;9.30;;;;;;;10.02;71.97;100739.88;1736289;82;21007;-75
2022/10/13 06:45:18;;;;;;;13.85;9.10;;;;;;;10.06;71.67;100746.58;1735632;82;21032;-76
2022/10/13 06:47:45;;;;;;;12.70;9.38;;;;;;;10.12;71.28;100750.02;1735021;82;21078;-76
2022/10/13 06:50:11;;;;;;;19.98;10.38;;;;;;;10.07;71.13;100751.42;1715154;82;21055;-76
2022/10/13 06:52:39;;;;;;;16.42;9.35;;;;;;;10.01;71.08;100747.50;1705641;83;21232;-76
2022/10/13 06:55:07;;;;;;;14.70;9.48;;;;;;;9.93;71.14;100746.88;1712184;82;21054;-76
2022/10/13 06:57:35;;;;;;;15.32;10.05;;;;;;;9.87;71.28;100746.58;1734979;82;22064;-76
2022/10/13 07:00:06;;;;;;;18.30;9.73;;;;;;;9.86;71.37;100748.40;1735167;82;21086;-75
2022/10/13 07:02:34;;;;;;;19.05;8.75;;;;;;;9.83;71.28;100744.68;1734361;82;21046;-76
2022/10/13 07:05:01;;;;;;;22.40;9.25;;;;;;;9.95;71.12;100746.24;1735341;82;21571;-76
2022/10/13 07:07:29;;;;;;;22.20;9.63;;;;;;;9.99;70.82;100741.50;1734952;82;21022;-76
2022/10/13 07:09:55;;;;;;;15.95;9.55;;;;;;;10.00;70.88;100743.98;1734459;82;20995;-75
2022/10/13 07:12:21;;;;;;;16.17;10.13;;;;;;;9.99;70.91;100738.34;1726886;82;21033;-76
2022/10/13 07:14:49;;;;;;;16.48;8.65;;;;;;;9.97;71.04;100738.98;1734994;82;21030;-75
2022/10/13 07:17:17;;;;;;;16.02;9.48;;;;;;;9.98;71.04;100739.31;1735098;82;21319;-76
2022/10/13 07:19:47;;;;;;;17.37;9.48;;;;;;;9.98;70.91;100743.79;1734060;82;21011;-76
2022/10/13 07:22:15;;;;;;;18.27;9.08;;;;;;;9.97;70.92;100744.78;1705624;84;21521;-75
2022/10/13 07:24:42;;;;;;;22.22;10.65;;;;;;;9.98;70.93;100743.29;1705880;84;21026;-74
2022/10/13 07:27:09;;;;;;;24.23;9.48;;;;;;;10.03;70.96;100742.39;1705673;84;21054;-76
2022/10/13 07:29:36;;;;;;;22.07;9.88;;;;;;;10.08;71.00;100742.45;1705682;84;21150;-76
2022/10/13 07:32:03;;;;;;;13.48;8.23;;;;;;;10.21;70.96;100741.69;1713811;82;21003;-73
2022/10/13 07:34:30;;;;;;;16.25;9.43;;;;;;;10.42;70.43;100741.05;1710687;82;21054;-77
2022/10/13 07:36:56;;;;;;;14.83;8.70;;;;;;;10.46;70.24;100742.94;1706793;83;21538;-75
2022/10/13 07:39:23;;;;;;;15.60;9.13;;;;;;;10.51;70.19;100746.52;1705868;84;21018;-76
2022/10/13 07:41:49;;;;;;;21.87;9.63;;;;;;;10.55;70.15;100742.59;1706039;83;21097;-76
2022/10/13 07:44:16;;;;;;;16.75;9.10;;;;;;;10.60;70.10;100744.30;1705551;82;21002;-76
2022/10/13 07:46:42;;;;;;;18.23;10.32;;;;;;;10.66;69.90;100742.89;1705646;84;21078;-76
2022/10/13 07:49:10;;;;;;;14.85;8.43;;;;;;;10.70;69.80;100741.14;1705611;84;21553;-76
2022/10/13 07:51:36;;;;;;;19.85;9.83;;;;;;;10.79;69.83;100751.39;1705953;84;21024;-76
2022/10/13 07:54:03;;;;;;;17.95;9.65;;;;;;;10.87;69.58;100746.67;1710632;82;21271;-76
2022/10/13 07:56:29;;;;;;;16.25;9.08;;;;;;;10.92;69.47;100749.75;1734910;82;21047;-76
2022/10/13 07:58:56;;;;;;;18.17;9.20;;;;;;;10.95;69.39;100746.30;1734899;82;21018;-76
2022/10/13 08:01:23;;;;;;;14.73;8.80;;;;;;;11.01;69.21;100748.87;1734002;82;21047;-75
2022/10/13 08:03:49;;;;;;;17.15;8.58;;;;;;;11.06;68.95;100747.92;1705581;83;21046;-76
2022/10/13 08:06:19;;;;;;;16.35;9.30;;;;;;;11.11;68.68;100750.99;1733788;82;21545;-76
2022/10/13 08:08:51;;;;;;;;;;;;;;;11.13;68.58;100748.19;1725384;82;21561;-76
2022/10/13 08:11:18;;;;;;;16.73;8.03;;;;;;;11.14;68.58;100750.68;1686572;83;20189;-76
2022/10/13 08:13:47;;;;;;;16.37;8.70;;;;;;;11.15;68.46;100750.21;1705484;83;21063;-75
2022/10/13 08:16:16;;;;;;;16.17;9.43;;;;;;;11.15;68.45;100748.88;1705895;82;21558;-75
2022/10/13 08:18:43;;;;;;;19.15;8.30;;;;;;;11.21;68.42;100749.11;1705598;84;21567;-75
2022/10/13 08:21:13;;;;;;;17.85;9.45;;;;;;;11.29;68.37;100744.89;1705624;84;21571;-75
2022/10/13 08:23:58;;;;;;;21.07;9.33;;;;;;;11.34;68.21;100743.96;1711852;82;21617;-75
2022/10/13 08:27:39;;;;;;;16.40;9.08;;;;;;;11.51;68.05;100747.15;1890861;76;28076;-75
2022/10/13 08:30:08;;;;;;;18.77;10.40;;;;;;;11.60;67.87;100753.38;1860708;77;21038;-75
2022/10/13 08:32:36;;;;;;;15.35;9.40;;;;;;;11.73;67.57;100753.03;1858571;77;21077;-75
2022/10/13 08:35:04;;;;;;;18.82;9.58;;;;;;;11.78;67.50;100752.92;1860217;77;20983;-75
2022/10/13 08:37:30;;;;;;;16.62;8.60;;;;;;;11.86;67.37;100753.49;1860207;77;21547;-77
2022/10/13 08:39:58;;;;;;;17.75;9.68;;;;;;;11.93;67.53;100744.42;1852037;77;20984;-75
2022/10/13 08:42:25;;;;;;;15.25;8.83;;;;;;;11.99;67.28;100752.66;1845493;77;21009;-73
2022/10/13 08:44:57;;;;;;;22.58;10.43;;;;;;;12.08;67.08;100750.05;1846372;77;21106;-75
2022/10/13 08:47:42;;;;;;;16.15;9.30;;;;;;;12.13;66.92;100747.75;1850847;77;20952;-75
2022/10/13 08:50:13;;;;;;;15.35;8.40;;;;;;;12.21;66.82;100747.84;1859962;77;21024;-76
2022/10/13 08:52:58;;;;;;;16.53;10.07;;;;;;;12.28;66.58;100748.87;1860699;77;21036;-76
2022/10/13 08:55:36;;;;;;;19.00;9.90;;;;;;;12.36;66.42;100744.96;1860319;77;20981;-76
2022/10/13 08:58:07;;;;;;;20.25;10.70;;;;;;;12.47;66.26;100747.02;1859047;77;21081;-76
2022/10/13 09:00:35;;;;;;;18.90;9.53;;;;;;;12.51;66.16;100743.05;1857303;77;21554;-76
2022/10/13 09:03:16;;;;;;;15.72;9.68;;;;;;;12.56;66.22;100750.09;1857935;77;21102;-76
2022/10/13 09:05:55;;;;;;;14.58;8.33;;;;;;;12.63;66.13;100747.62;1857679;77;21664;-77
2022/10/13 09:08:22;;;;;;;13.18;7.37;;;;;;;12.71;65.83;100743.20;1857795;77;21052;-75
2022/10/13 09:10:49;;;;;;;16.75;7.28;;;;;;;12.79;65.41;100749.07;1857943;77;21216;-76
2022/10/13 09:13:19;;;;;;;17.37;7.58;;;;;;;12.91;65.50;100750.46;1860224;77;21482;-76
2022/10/13 09:15:51;;;;;;;12.82;7.70;;;;;;;13.04;65.14;100751.84;1860168;77;20986;-75
2022/10/13 09:18:18;;;;;;;18.60;8.60;;;;;;;13.15;64.84;100751.09;1861230;77;21008;-76
2022/10/13 09:20:44;;;;;;;17.00;7.67;;;;;;;13.23;64.40;100748.95;1819366;77;21516;-76
2022/10/13 09:23:19;;;;;;;15.78;7.15;;;;;;;13.28;64.05;100755.13;1828098;77;21143;-76
2022/10/13 09:25:49;;;;;;;16.87;8.95;;;;;;;13.32;64.03;100749.84;1859046;76;21023;-76
2022/10/13 09:28:21;;;;;;;15.70;8.55;;;;;;;13.40;64.02;100749.86;1850873;77;21063;-76
2022/10/13 09:30:48;;;;;;;16.42;8.28;;;;;;;13.46;63.69;100753.23;1848839;77;21002;-75
2022/10/13 09:33:19;;;;;;;15.60;9.13;;;;;;;13.45;63.48;100755.56;1774583;77;21075;-76
2022/10/13 09:35:58;;;;;;;15.30;8.53;;;;;;;13.42;63.72;100749.70;1849272;77;21916;-77
2022/10/13 09:38:24;;;;;;;17.25;8.63;;;;;;;13.49;63.45;100746.73;1843954;77;21075;-75
2022/10/13 09:41:11;;;;;;;13.03;7.85;;;;;;;13.58;63.16;100748.43;1848414;77;21036;-75
2022/10/13 09:43:46;;;;;;;15.38;9.05;;;;;;;13.69;63.06;100741.92;1815557;79;21060;-76
2022/10/13 09:46:27;;;;;;;19.82;10.38;;;;;;;13.80;62.82;100746.13;1815483;79;21068;-76
2022/10/13 09:49:01;;;;;;;18.87;10.15;;;;;;;13.88;62.68;100739.46;1815348;78;21684;-75
2022/10/13 09:51:36;;;;;;;19.25;10.45;;;;;;;13.97;62.39;100741.14;1814922;79;21014;-74
2022/10/13 09:54:26;;;;;;;14.07;7.65;;;;;;;14.06;62.19;100739.30;1812534;79;21492;-77
2022/10/13 09:57:03;;;;;;;16.45;8.70;;;;;;;14.11;61.90;100733.79;1815552;79;20994;-76
2022/10/13 09:59:36;;;;;;;17.50;8.95;;;;;;;14.14;61.63;100727.30;1815403;79;21041;-78
2022/10/13 10:02:29;;;;;;;14.10;7.97;;;;;;;14.08;61.58;100726.61;1815317;79;21540;-76
2022/10/13 10:05:01;;;;;;;15.48;8.68;;;;;;;14.07;61.87;100727.11;1837028;77;21043;-76
2022/10/13 10:07:31;;;;;;;16.10;8.43;;;;;;;14.08;61.84;100729.28;1840991;77;21110;-77
2022/10/13 10:10:05;;;;;;;11.75;7.58;;;;;;;14.05;61.63;100729.63;1843443;77;21028;-75
2022/10/13 10:12:35;;;;;;;16.52;6.90;;;;;;;14.00;61.88;100731.95;1849353;77;21037;-75
2022/10/13 10:15:05;;;;;;;9.65;6.12;;;;;;;14.00;61.73;100729.28;1849631;77;21215;-76
2022/10/13 10:17:43;;;;;;;10.00;5.83;;;;;;;13.99;61.73;100728.96;1819911;77;21009;-76
2022/10/13 10:20:18;;;;;;;10.85;6.50;;;;;;;13.99;61.74;100725.78;1746769;81;21010;-76
2022/10/13 10:23:19;;;;;;;12.43;6.70;;;;;;;14.02;61.68;100725.43;1813635;79;21006;-76
2022/10/13 10:25:59;;;;;;;12.05;6.30;;;;;;;14.04;61.73;100724.80;1811937;79;21029;-76
2022/10/13 10:28:56;;;;;;;13.00;6.62;;;;;;;14.11;61.75;100727.63;1815218;79;21292;-76
2022/10/13 10:31:37;;;;;;;11.40;5.90;;;;;;;14.16;61.71;100722.62;1830223;77;21038;-76
2022/10/13 10:34:36;;;;;;;13.00;6.28;;;;;;;14.24;61.64;100719.94;1848780;77;20986;-76
2022/10/13 10:37:14;;;;;;;11.95;7.03;;;;;;;14.27;61.57;100720.91;1848427;77;21001;-76
2022/10/13 10:39:47;;;;;;;13.22;6.62;;;;;;;14.30;61.41;100720.59;1848769;77;21009;-76
2022/10/13 10:42:44;;;;;;;13.13;6.78;;;;;;;14.27;61.27;100719.58;1843617;77;21474;-76
2022/10/13 10:45:18;;;;;;;14.18;6.87;;;;;;;14.26;61.34;100720.59;1843359;77;21037;-76
2022/10/13 10:47:47;;;;;;;11.10;6.17;;;;;;;14.23;61.65;100720.09;1842698;77;21032;-76
2022/10/13 10:50:16;;;;;;;14.78;6.28;;;;;;;14.21;61.83;100718.92;1843690;77;20997;-75
2022/10/13 10:52:57;;;;;;;10.78;5.78;;;;;;;14.20;61.73;100707.91;1848346;77;21024;-76
2022/10/13 10:55:32;;;;;;;11.08;5.50;;;;;;;14.26;61.58;100708.57;1848638;77;23452;-76
2022/10/13 10:58:09;;;;;;;9.53;5.67;;;;;;;14.28;61.41;100707.08;1848937;77;21079;-75
2022/10/13 11:00:46;;;;;;;11.38;5.00;;;;;;;14.29;61.45;100707.39;1848498;77;21032;-75
2022/10/13 11:03:27;;;;;;;10.45;4.78;;;;;;;14.32;61.27;100707.89;1849093;77;21524;-75
2022/10/13 11:06:11;;;;;;;16.70;6.03;;;;;;;14.33;61.07;100706.91;1845396;77;21473;-77
2022/10/13 11:08:40;;;;;;;;;;;;;;;14.31;60.97;100704.05;1843212;77;22037;-76
2022/10/13 11:11:30;;;;;;;12.80;5.03;;;;;;;14.28;60.82;100707.91;1845427;77;20175;-76
2022/10/13 11:14:07;;;;;;;15.60;5.53;;;;;;;14.19;61.06;100706.23;1848673;77;20989;-75
2022/10/13 11:17:03;;;;;;;15.05;5.50;;;;;;;14.14;61.38;100708.08;1847981;77;20969;-75
2022/10/13 11:19:34;;;;;;;17.55;5.78;;;;;;;14.14;61.30;100710.75;1845676;77;21162;-77
2022/10/13 11:22:07;;;;;;;14.20;5.62;;;;;;;14.16;61.42;100707.92;1774485;80;21538;-76
2022/10/13 11:24:50;;;;;;;10.95;6.37;;;;;;;14.17;61.45;100704.23;1806196;79;21006;-77
2022/10/13 11:27:38;;;;;;;11.93;5.50;;;;;;;14.18;61.50;100707.73;1788942;80;21002;-76
2022/10/13 11:30:40;;;;;;;12.85;5.28;;;;;;;14.16;61.34;100707.92;1758233;80;21544;-76
2022/10/13 11:33:44;;;;;;;9.23;5.33;;;;;;;14.06;61.47;100705.90;1783698;80;21080;-76
2022/10/13 11:36:38;;;;;;;;;;;;;;;13.98;61.82;100703.23;1755328;81;21149;-77
2022/10/13 11:39:36;;;;;;;10.40;4.65;;;;;;;13.94;61.91;100702.22;1770955;80;20204;-77
2022/10/13 11:42:22;;;;;;;12.93;4.67;;;;;;;13.92;61.96;100703.40;1800859;79;21547;-76
2022/10/13 11:44:58;;;;;;;13.22;4.75;;;;;;;13.91;61.81;100701.23;1842384;77;21129;-76